Time;durP1;ratioP1;P1;durP2;ratioP2;P2;SDS_P1;SDS_P2;PMS_P1;PMS_P2;Temp;Humidity;BMP_temperature;BMP_pressure;BME280_temperature;BME280_humidity;BME280_pressure;Samples;Min_cycle;Max_cycle;Signal;HPM_P1;HPM_P2
2022/02/20 00:00:35;;;;;;;;;;;;;;;2.68;96.96;100320.56;2105363;28;19928;-69
2022/02/20 00:01:37;;;;;;;;;;;;;;;2.68;96.95;100318.78;2104786;28;43245;-69
2022/02/20 00:02:39;;;;;;;;;;;;;;;2.70;96.79;100310.00;2104385;28;44078;-69
2022/02/20 00:03:40;;;;;;;;;;;;;;;2.71;97.21;100319.66;2104881;28;40698;-69
2022/02/20 00:04:45;;;;;;;;;;;;;;;2.70;96.59;100321.44;2104956;28;43141;-69
2022/02/20 00:05:46;;;;;;;;;;;;;;;2.70;96.95;100326.72;2104746;28;43984;-69
2022/02/20 00:06:48;;;;;;;;;;;;;;;2.71;96.89;100331.16;2104741;28;44039;-69
2022/02/20 00:07:49;;;;;;;;;;;;;;;2.72;97.07;100332.03;2104178;28;45513;-69
2022/02/20 00:08:53;;;;;;;;;;;;;;;2.72;96.47;100332.88;2104795;28;45987;-69
2022/02/20 00:09:55;;;;;;;;;;;;;;;2.71;96.62;100328.50;2104452;28;42984;-69
2022/02/20 00:10:58;;;;;;;;;;;;;;;2.72;96.94;100329.38;2100595;28;44808;-69
2022/02/20 00:12:00;;;;;;;;;;;;;;;2.71;97.02;100323.22;2096170;28;43090;-69
2022/02/20 00:13:03;;;;;;;;;;;;;;;2.72;97.13;100324.97;2098369;28;44278;-68
2022/02/20 00:14:05;;;;;;;;;;;;;;;2.72;97.13;100337.31;2097418;28;45266;-69
2022/02/20 00:15:06;;;;;;;;;;;;;;;2.73;96.41;100336.41;2096469;28;43050;-70
2022/02/20 00:16:08;;;;;;;;;;;;;;;2.73;97.20;100333.75;2096118;28;45255;-69
2022/02/20 00:17:10;;;;;;;;;;;;;;;2.73;96.41;100339.03;2096513;28;45770;-69
2022/02/20 00:18:16;;;;;;;;;;;;;;;2.74;96.57;100341.69;2097488;28;19917;-68
2022/02/20 00:19:18;;;;;;;;;;;;;;;2.73;96.96;100329.38;2096236;28;44173;-69
2022/02/20 00:20:20;;;;;;;;;;;;;;;2.74;96.94;100341.69;2096332;28;44102;-70
2022/02/20 00:21:21;;;;;;;;;;;;;;;2.74;96.87;100343.47;2096179;28;44145;-68
2022/02/20 00:22:23;;;;;;;;;;;;;;;2.76;96.94;100341.69;2095880;28;43436;-70
2022/02/20 00:23:24;;;;;;;;;;;;;;;2.77;97.10;100351.41;2096643;28;41541;-70
2022/02/20 00:24:27;;;;;;;;;;;;;;;2.77;96.81;100359.34;2096389;28;46094;-70
2022/02/20 00:25:31;;;;;;;;;;;;;;;2.77;97.03;100362.84;2096372;28;44159;-70
2022/02/20 00:26:32;;;;;;;;;;;;;;;2.79;96.98;100357.56;2096045;28;44133;-70
2022/02/20 00:27:34;;;;;;;;;;;;;;;2.79;96.46;100368.13;2096199;28;46271;-68
2022/02/20 00:28:36;;;;;;;;;;;;;;;2.79;97.13;100362.84;2096666;28;34831;-69
2022/02/20 00:29:37;;;;;;;;;;;;;;;2.80;97.15;100364.59;2096226;28;46238;-68
2022/02/20 00:30:39;;;;;;;;;;;;;;;2.80;97.04;100365.50;2095222;28;41827;-69
2022/02/20 00:31:42;;;;;;;;;;;;;;;2.80;96.57;100365.50;2096600;28;19925;-70
2022/02/20 00:32:46;;;;;;;;;;;;;;;2.80;97.31;100370.78;2104499;28;20038;-70
2022/02/20 00:33:47;;;;;;;;;;;;;;;2.81;96.98;100361.09;2104016;28;43830;-70
2022/02/20 00:34:49;;;;;;;;;;;;;;;2.82;96.87;100376.06;2095850;28;45795;-69
2022/02/20 00:35:51;;;;;;;;;;;;;;;2.84;96.89;100376.94;2096804;28;44658;-69
2022/02/20 00:36:54;;;;;;;;;;;;;;;2.82;96.81;100379.59;2096947;28;20858;-70
2022/02/20 00:37:59;;;;;;;;;;;;;;;2.84;97.12;100382.25;2096751;28;20025;-69
2022/02/20 00:39:00;;;;;;;;;;;;;;;2.84;96.92;100387.53;2095838;28;43085;-69
2022/02/20 00:40:03;;;;;;;;;;;;;;;2.84;97.02;100374.31;2096747;28;35624;-69
2022/02/20 00:41:05;;;;;;;;;;;;;;;2.84;97.04;100382.25;2096511;28;19929;-70
2022/02/20 00:42:06;;;;;;;;;;;;;;;2.85;96.72;100386.63;2118423;22;44023;-69
2022/02/20 00:43:12;;;;;;;;;;;;;;;2.85;96.68;100400.75;2098270;28;45496;-68
2022/02/20 00:44:16;;;;;;;;;;;;;;;2.85;96.78;100394.56;2097432;28;20051;-68
2022/02/20 00:45:20;;;;;;;;;;;;;;;2.86;96.87;100401.63;2097082;28;20809;-68
2022/02/20 00:46:24;;;;;;;;;;;;;;;2.87;96.66;100400.72;2097287;28;19928;-69
2022/02/20 00:47:26;;;;;;;;;;;;;;;2.88;97.07;100402.50;2095328;28;45106;-68
2022/02/20 00:48:28;;;;;;;;;;;;;;;2.90;97.01;100407.78;2096340;28;19920;-69
2022/02/20 00:49:30;;;;;;;;;;;;;;;2.88;96.94;100407.78;2097076;28;20712;-69
2022/02/20 00:50:31;;;;;;;;;;;;;;;2.91;97.17;100413.09;2095419;28;44249;-68
2022/02/20 00:51:35;;;;;;;;;;;;;;;2.90;96.86;100413.94;2096509;28;20678;-68
2022/02/20 00:52:39;;;;;;;;;;;;;;;2.91;97.17;100415.72;2095605;28;33908;-68
2022/02/20 00:53:41;;;;;;;;;;;;;;;2.91;97.07;100423.66;2096653;28;20062;-68
2022/02/20 00:54:42;;;;;;;;;;;;;;;2.92;96.59;100419.25;2096342;28;44049;-68
2022/02/20 00:55:44;;;;;;;;;;;;;;;2.91;97.29;100409.53;2095898;28;45570;-68
2022/02/20 00:56:46;;;;;;;;;;;;;;;2.92;97.02;100414.81;2097370;28;19999;-68
2022/02/20 00:57:47;;;;;;;;;;;;;;;2.92;96.72;100417.47;2097544;28;19928;-68
2022/02/20 00:58:49;;;;;;;;;;;;;;;2.92;97.14;100420.13;2095953;28;43812;-68
2022/02/20 00:59:52;;;;;;;;;;;;;;;2.92;97.06;100421.88;2095757;28;19928;-68
2022/02/20 01:00:54;;;;;;;;;;;;;;;2.92;96.71;100421.88;2087757;28;19926;-68
2022/02/20 01:01:56;;;;;;;;;;;;;;;2.92;96.80;100422.75;2088183;28;19929;-68
2022/02/20 01:02:57;;;;;;;;;;;;;;;2.93;96.88;100421.03;2095955;28;26126;-68
2022/02/20 01:04:00;;;;;;;;;;;;;;;2.93;97.02;100418.38;2095237;28;44167;-68
2022/02/20 01:05:02;;;;;;;;;;;;;;;2.94;96.83;100420.13;2096320;28;19998;-68
2022/02/20 01:06:04;;;;;;;;;;;;;;;2.94;97.41;100420.13;2096153;28;19995;-68
2022/02/20 01:07:07;;;;;;;;;;;;;;;2.94;97.05;100428.91;2097011;28;19921;-68
2022/02/20 01:08:12;;;;;;;;;;;;;;;2.95;96.79;100432.47;2096023;28;20801;-68
2022/02/20 01:09:13;;;;;;;;;;;;;;;2.95;97.27;100428.06;2095112;28;44363;-68
2022/02/20 01:10:18;;;;;;;;;;;;;;;2.95;97.27;100433.34;2087447;28;19930;-68
2022/02/20 01:11:20;;;;;;;;;;;;;;;2.96;97.03;100426.28;2087274;28;44045;-68
2022/02/20 01:12:22;;;;;;;;;;;;;;;2.96;96.88;100426.28;2095944;28;46630;-68
2022/02/20 01:13:23;;;;;;;;;;;;;;;2.96;96.58;100429.84;2099711;28;28750;-68
2022/02/20 01:14:25;;;;;;;;;;;;;;;2.96;97.15;100431.56;2087523;28;20068;-68
2022/02/20 01:15:27;;;;;;;;;;;;;;;2.94;96.79;100431.56;2089413;28;19972;-68
2022/02/20 01:16:28;;;;;;;;;;;;;;;2.94;97.11;100428.91;2089345;28;19933;-68
2022/02/20 01:17:30;;;;;;;;;;;;;;;2.93;97.09;100432.47;2080351;28;49083;-68
2022/02/20 01:18:32;;;;;;;;;;;;;;;2.91;97.07;100431.59;2088625;28;40188;-68
2022/02/20 01:19:33;;;;;;;;;;;;;;;2.90;96.66;100428.94;2096934;28;43642;-68
2022/02/20 01:20:35;;;;;;;;;;;;;;;2.89;96.75;100440.38;2096478;28;46602;-68
2022/02/20 01:21:38;;;;;;;;;;;;;;;2.89;96.79;100446.59;2098535;28;19928;-68
2022/02/20 01:22:39;;;;;;;;;;;;;;;2.87;96.95;100450.97;2096893;28;45561;-68
2022/02/20 01:23:41;;;;;;;;;;;;;;;2.86;97.29;100447.44;2097322;28;45000;-68
2022/02/20 01:24:42;;;;;;;;;;;;;;;2.84;97.20;100446.56;2097273;28;45627;-68
2022/02/20 01:25:44;;;;;;;;;;;;;;;2.85;96.90;100450.06;2089146;28;19999;-67
2022/02/20 01:26:46;;;;;;;;;;;;;;;2.84;97.04;100453.63;2079474;28;42484;-68
2022/02/20 01:27:50;;;;;;;;;;;;;;;2.83;97.35;100449.19;2088840;28;36957;-68
2022/02/20 01:28:52;;;;;;;;;;;;;;;2.83;96.79;100459.78;2088973;28;20948;-68
2022/02/20 01:29:54;;;;;;;;;;;;;;;2.82;97.16;100464.19;2089221;28;19921;-68
2022/02/20 01:30:56;;;;;;;;;;;;;;;2.82;97.07;100463.31;2096460;28;44232;-68
2022/02/20 01:31:57;;;;;;;;;;;;;;;2.82;96.82;100460.69;2088028;28;41816;-68
2022/02/20 01:32:59;;;;;;;;;;;;;;;2.81;96.77;100466.81;2088149;28;43069;-68
2022/02/20 01:34:01;;;;;;;;;;;;;;;2.80;96.58;100459.75;2096730;28;44691;-68
2022/02/20 01:35:03;;;;;;;;;;;;;;;2.79;96.89;100464.19;2098106;28;19916;-68
2022/02/20 01:36:05;;;;;;;;;;;;;;;2.79;97.18;100469.47;2097162;28;46618;-68
2022/02/20 01:37:07;;;;;;;;;;;;;;;2.78;96.71;100462.44;2097257;28;19925;-68
2022/02/20 01:38:15;;;;;;;;;;;;;;;2.77;96.99;100475.66;2096164;28;44588;-68
2022/02/20 01:39:18;;;;;;;;;;;;;;;2.78;96.89;100467.72;2088957;28;19925;-68
2022/02/20 01:40:20;;;;;;;;;;;;;;;2.79;96.67;100481.81;2088207;28;44444;-68
2022/02/20 01:41:21;;;;;;;;;;;;;;;2.79;97.01;100498.53;2088846;28;20868;-68
2022/02/20 01:42:24;;;;;;;;;;;;;;;2.79;96.71;100500.31;2081197;28;19928;-68
2022/02/20 01:43:26;;;;;;;;;;;;;;;2.80;96.84;100494.13;2088751;28;20949;-68
2022/02/20 01:44:33;;;;;;;;;;;;;;;2.81;96.77;100501.19;2088607;28;19921;-68
2022/02/20 01:45:34;;;;;;;;;;;;;;;2.83;96.43;100502.06;2088104;28;43275;-68
2022/02/20 01:46:36;;;;;;;;;;;;;;;2.82;96.47;100506.50;2089149;28;20833;-68
2022/02/20 01:47:38;;;;;;;;;;;;;;;2.83;96.67;100504.72;2087880;28;46426;-68
2022/02/20 01:48:40;;;;;;;;;;;;;;;2.88;96.70;100510.91;2097344;28;20829;-68
2022/02/20 01:49:43;;;;;;;;;;;;;;;2.87;96.38;100519.69;2088880;28;20824;-68
2022/02/20 01:50:45;;;;;;;;;;;;;;;2.89;96.42;100517.97;2080937;28;20071;-68
2022/02/20 01:51:48;;;;;;;;;;;;;;;2.90;96.50;100521.47;2088515;28;20781;-68
2022/02/20 01:52:50;;;;;;;;;;;;;;;2.89;95.79;100525.91;2080523;28;20018;-69
2022/02/20 01:53:54;;;;;;;;;;;;;;;2.92;96.44;100528.53;2080374;28;29305;-68
2022/02/20 01:54:56;;;;;;;;;;;;;;;2.94;95.56;100531.19;2088801;28;35315;-67
2022/02/20 01:56:01;;;;;;;;;;;;;;;2.94;95.79;100533.81;2080883;28;20011;-68
2022/02/20 01:57:21;;;;;;;;;;;;;;;2.94;95.62;100532.06;2092443;28;19924;-68
2022/02/20 01:59:03;;;;;;;;;;;;;;;2.93;95.71;100532.06;2072010;28;19926;-68
2022/02/20 02:00:31;;;;;;;;;;;;;;;2.97;96.01;100537.34;2069772;28;20052;-68
2022/02/20 02:01:52;;;;;;;;;;;;;;;2.95;96.00;100536.47;2063585;28;19930;-68
2022/02/20 02:03:04;;;;;;;;;;;;;;;2.96;95.58;100534.69;2057647;28;19922;-68
2022/02/20 02:04:27;;;;;;;;;;;;;;;2.95;95.61;100541.75;2064377;28;19926;-68
2022/02/20 02:05:36;;;;;;;;;;;;;;;2.97;95.91;100545.28;2081740;28;19927;-68
2022/02/20 02:06:39;;;;;;;;;;;;;;;2.96;95.61;100551.47;2081259;28;20781;-68
2022/02/20 02:07:42;;;;;;;;;;;;;;;2.95;95.68;100554.97;2080603;28;20886;-68
2022/02/20 02:09:00;;;;;;;;;;;;;;;2.95;95.46;100554.97;2083021;28;19976;-68
2022/02/20 02:10:39;;;;;;;;;;;;;;;2.95;95.73;100556.75;2080348;28;20783;-68
2022/02/20 02:11:54;;;;;;;;;;;;;;;2.94;95.64;100563.78;2079962;28;20818;-68
2022/02/20 02:13:00;;;;;;;;;;;;;;;2.95;95.47;100562.03;2072083;28;20950;-68
2022/02/20 02:14:20;;;;;;;;;;;;;;;2.95;95.16;100575.25;2065811;28;20136;-68
2022/02/20 02:15:53;;;;;;;;;;;;;;;2.93;95.25;100588.47;2070462;28;19926;-67
2022/02/20 02:17:13;;;;;;;;;;;;;;;2.94;95.07;100592.00;2097634;28;19916;-65
2022/02/20 02:18:24;;;;;;;;;;;;;;;2.94;95.15;100594.63;2096793;28;19928;-67
2022/02/20 02:19:34;;;;;;;;;;;;;;;2.93;94.88;100599.06;2089118;28;20961;-67
2022/02/20 02:21:05;;;;;;;;;;;;;;;2.92;94.56;100607.84;2079890;28;19933;-68
2022/02/20 02:22:23;;;;;;;;;;;;;;;2.90;93.82;100614.91;2097697;28;19925;-68
2022/02/20 02:24:00;;;;;;;;;;;;;;;2.92;93.55;100610.50;2071121;28;19914;-68
2022/02/20 02:25:20;;;;;;;;;;;;;;;2.91;93.45;100618.41;2071771;28;20791;-68
2022/02/20 02:26:54;;;;;;;;;;;;;;;2.90;92.98;100622.84;2055119;28;19926;-68
2022/02/20 02:28:06;;;;;;;;;;;;;;;2.91;93.17;100624.63;2084605;28;19925;-68
2022/02/20 02:29:10;;;;;;;;;;;;;;;2.90;92.67;100640.47;2080523;28;20021;-68
2022/02/20 02:30:12;;;;;;;;;;;;;;;2.90;92.86;100638.69;2080505;28;19934;-68
2022/02/20 02:31:15;;;;;;;;;;;;;;;2.87;92.90;100641.31;2080310;28;20806;-68
2022/02/20 02:32:21;;;;;;;;;;;;;;;2.91;93.45;100637.84;2080305;28;20768;-68
2022/02/20 02:33:28;;;;;;;;;;;;;;;2.93;93.48;100646.66;2080302;28;45716;-68
2022/02/20 02:34:30;;;;;;;;;;;;;;;2.93;93.40;100649.31;2079516;28;46448;-68
2022/02/20 02:35:34;;;;;;;;;;;;;;;2.90;93.04;100643.13;2080121;28;20090;-67
2022/02/20 02:36:35;;;;;;;;;;;;;;;2.88;92.71;100648.38;2080273;28;30812;-68
2022/02/20 02:37:41;;;;;;;;;;;;;;;2.87;92.89;100646.63;2079075;28;47832;-68
2022/02/20 02:38:45;;;;;;;;;;;;;;;2.88;93.17;100653.69;2081497;28;20982;-68
2022/02/20 02:39:51;;;;;;;;;;;;;;;2.87;92.86;100646.63;2089677;28;19991;-67
2022/02/20 02:40:59;;;;;;;;;;;;;;;2.91;93.31;100651.06;2080544;28;20068;-68
2022/02/20 02:42:02;;;;;;;;;;;;;;;2.95;92.80;100655.47;2079573;28;19929;-68
2022/02/20 02:43:04;;;;;;;;;;;;;;;2.88;91.85;100660.75;2072384;28;20069;-68
2022/02/20 02:44:05;;;;;;;;;;;;;;;2.87;91.89;100651.91;2079629;28;45660;-68
2022/02/20 02:45:08;;;;;;;;;;;;;;;2.85;91.33;100656.31;2079744;28;43658;-67
2022/02/20 02:46:09;;;;;;;;;;;;;;;2.85;91.05;100664.25;2080186;28;39067;-68
2022/02/20 02:47:11;;;;;;;;;;;;;;;2.88;91.41;100666.03;2080243;28;19995;-68
2022/02/20 02:48:13;;;;;;;;;;;;;;;2.86;91.26;100666.88;2079825;28;36073;-68
2022/02/20 02:49:15;;;;;;;;;;;;;;;2.85;90.95;100669.53;2080109;28;33385;-68
2022/02/20 02:50:16;;;;;;;;;;;;;;;2.84;91.00;100670.41;2079452;28;37537;-68
2022/02/20 02:51:18;;;;;;;;;;;;;;;2.88;91.56;100680.13;2080039;28;37538;-68
2022/02/20 02:52:19;;;;;;;;;;;;;;;2.88;91.19;100682.75;2079899;28;25640;-68
2022/02/20 02:53:21;;;;;;;;;;;;;;;2.88;91.68;100676.59;2088277;28;24647;-67
2022/02/20 02:54:25;;;;;;;;;;;;;;;2.84;91.29;100681.88;2088388;28;44371;-67
2022/02/20 02:55:27;;;;;;;;;;;;;;;2.78;91.36;100679.22;2080454;28;19937;-68
2022/02/20 02:56:29;;;;;;;;;;;;;;;2.77;91.67;100682.72;2072259;28;20008;-68
2022/02/20 02:57:31;;;;;;;;;;;;;;;2.75;92.30;100680.97;2071701;28;24477;-67
2022/02/20 02:58:33;;;;;;;;;;;;;;;2.71;91.83;100679.16;2071020;28;46700;-68
2022/02/20 02:59:40;;;;;;;;;;;;;;;2.72;91.51;100680.94;2072937;28;19938;-68
2022/02/20 03:00:43;;;;;;;;;;;;;;;2.70;91.46;100691.50;2072267;28;19926;-67
2022/02/20 03:01:47;;;;;;;;;;;;;;;2.70;91.72;100702.06;2072390;28;20747;-68
2022/02/20 03:02:48;;;;;;;;;;;;;;;2.69;91.76;100695.00;2071409;28;40411;-68
2022/02/20 03:03:53;;;;;;;;;;;;;;;2.65;91.76;100702.03;2072133;28;19925;-68
2022/02/20 03:05:00;;;;;;;;;;;;;;;2.63;91.84;100701.13;2072930;28;19978;-68
2022/02/20 03:06:14;;;;;;;;;;;;;;;2.63;91.13;100690.56;2072806;28;19932;-68
2022/02/20 03:07:17;;;;;;;;;;;;;;;2.64;91.94;100702.03;2080466;28;19972;-67
2022/02/20 03:08:18;;;;;;;;;;;;;;;2.63;91.69;100701.13;2080232;28;19972;-67
2022/02/20 03:09:22;;;;;;;;;;;;;;;2.63;91.81;100700.25;2088242;28;19936;-68
2022/02/20 03:10:24;;;;;;;;;;;;;;;2.61;91.84;100702.91;2087838;28;43053;-68
2022/02/20 03:11:27;;;;;;;;;;;;;;;2.60;91.58;100703.78;2087411;28;39952;-68
2022/02/20 03:12:28;;;;;;;;;;;;;;;2.59;91.95;100704.66;2088074;28;19952;-68
2022/02/20 03:13:31;;;;;;;;;;;;;;;2.59;91.36;100711.72;2079927;28;19917;-68
2022/02/20 03:14:35;;;;;;;;;;;;;;;2.59;92.02;100702.00;2080156;28;20039;-68
2022/02/20 03:15:39;;;;;;;;;;;;;;;2.58;92.07;100713.44;2080381;28;19929;-68
2022/02/20 03:16:41;;;;;;;;;;;;;;;2.56;92.11;100717.84;2071785;28;19926;-68
2022/02/20 03:17:43;;;;;;;;;;;;;;;2.54;92.01;100716.94;2063351;28;44764;-68
2022/02/20 03:18:46;;;;;;;;;;;;;;;2.56;91.57;100722.25;2080439;28;19993;-68
2022/02/20 03:19:54;;;;;;;;;;;;;;;2.57;92.62;100724.91;2080392;28;20067;-68
2022/02/20 03:21:00;;;;;;;;;;;;;;;2.57;92.44;100731.97;2080435;28;19929;-67
2022/02/20 03:22:01;;;;;;;;;;;;;;;2.56;92.36;100731.06;2087782;28;19990;-68
2022/02/20 03:23:05;;;;;;;;;;;;;;;2.56;92.21;100735.47;2085626;28;19925;-68
2022/02/20 03:24:10;;;;;;;;;;;;;;;2.54;91.88;100727.53;2088816;28;20868;-68
2022/02/20 03:25:12;;;;;;;;;;;;;;;2.56;92.05;100738.09;2087181;28;44710;-68
2022/02/20 03:26:16;;;;;;;;;;;;;;;2.55;92.39;100736.31;2088639;28;20732;-68
2022/02/20 03:27:19;;;;;;;;;;;;;;;2.55;92.07;100744.25;2088088;28;19968;-68
2022/02/20 03:28:21;;;;;;;;;;;;;;;2.54;92.12;100732.81;2088353;28;19933;-68
2022/02/20 03:29:31;;;;;;;;;;;;;;;2.52;91.99;100741.63;2094646;28;20063;-68
2022/02/20 03:30:33;;;;;;;;;;;;;;;2.52;92.39;100739.84;2080114;28;19952;-68
2022/02/20 03:31:37;;;;;;;;;;;;;;;2.52;92.34;100746.91;2088348;28;19929;-68
2022/02/20 03:32:38;;;;;;;;;;;;;;;2.49;92.02;100745.09;2088569;28;19933;-68
2022/02/20 03:33:43;;;;;;;;;;;;;;;2.49;92.50;100739.81;2080017;28;19925;-68
2022/02/20 03:34:45;;;;;;;;;;;;;;;2.46;91.89;100745.97;2080609;28;19992;-68
2022/02/20 03:35:49;;;;;;;;;;;;;;;2.44;92.83;100749.47;2079779;28;21290;-68
2022/02/20 03:36:52;;;;;;;;;;;;;;;2.43;92.14;100755.63;2088850;28;20854;-68
2022/02/20 03:38:04;;;;;;;;;;;;;;;2.39;92.10;100754.72;2087609;28;19966;-68
2022/02/20 03:39:12;;;;;;;;;;;;;;;2.39;92.89;100759.16;2089105;28;19932;-68
2022/02/20 03:40:14;;;;;;;;;;;;;;;2.36;92.04;100751.19;2087247;28;20011;-68
2022/02/20 03:41:16;;;;;;;;;;;;;;;2.34;92.55;100761.72;2079663;28;32617;-68
2022/02/20 03:42:17;;;;;;;;;;;;;;;2.33;92.93;100757.31;2087443;28;19929;-68
2022/02/20 03:43:42;;;;;;;;;;;;;;;2.33;93.53;100759.06;2066499;28;19925;-68
2022/02/20 03:44:44;;;;;;;;;;;;;;;2.31;92.81;100750.25;2085837;28;20721;-68
2022/02/20 03:45:50;;;;;;;;;;;;;;;2.31;93.17;100761.69;2088279;28;20090;-68
2022/02/20 03:46:51;;;;;;;;;;;;;;;2.31;93.36;100751.13;2096834;28;25058;-67
2022/02/20 03:47:54;;;;;;;;;;;;;;;2.31;92.90;100751.13;2087976;28;20888;-68
2022/02/20 03:48:56;;;;;;;;;;;;;;;2.28;92.64;100733.53;2079774;28;20014;-68
2022/02/20 03:50:14;;;;;;;;;;;;;;;2.27;92.31;100723.81;2088075;28;19932;-68
2022/02/20 03:51:23;;;;;;;;;;;;;;;2.26;92.93;100711.50;2088903;28;19992;-68
2022/02/20 03:52:24;;;;;;;;;;;;;;;2.24;92.45;100723.81;2087951;28;19917;-68
2022/02/20 03:53:27;;;;;;;;;;;;;;;2.21;93.05;100739.63;2088311;28;19925;-68
2022/02/20 03:54:32;;;;;;;;;;;;;;;2.18;92.43;100747.50;2088112;28;20071;-68
2022/02/20 03:55:37;;;;;;;;;;;;;;;2.19;92.90;100751.03;2080696;28;19937;-68
2022/02/20 03:56:38;;;;;;;;;;;;;;;2.16;92.78;100751.91;2071490;28;35356;-68
2022/02/20 03:57:52;;;;;;;;;;;;;;;2.18;92.99;100765.13;2075174;28;19984;-67
2022/02/20 03:59:09;;;;;;;;;;;;;;;2.17;93.08;100753.69;2082039;28;19930;-67
2022/02/20 04:00:16;;;;;;;;;;;;;;;2.17;93.35;100753.69;2088829;28;19994;-68
2022/02/20 04:01:25;;;;;;;;;;;;;;;2.17;93.58;100752.78;2088338;28;19926;-67
2022/02/20 04:02:30;;;;;;;;;;;;;;;2.16;94.08;100749.25;2089580;28;19921;-68
2022/02/20 04:03:33;;;;;;;;;;;;;;;2.17;92.96;100756.31;2088132;28;19975;-67
2022/02/20 04:04:37;;;;;;;;;;;;;;;2.18;93.79;100754.56;2087702;28;20737;-68
2022/02/20 04:05:39;;;;;;;;;;;;;;;2.18;93.98;100767.78;2088780;28;19925;-67
2022/02/20 04:06:43;;;;;;;;;;;;;;;2.16;93.16;100766.88;2080280;28;19925;-68
2022/02/20 04:07:45;;;;;;;;;;;;;;;2.17;93.63;100764.25;2079978;28;22590;-68
2022/02/20 04:08:47;;;;;;;;;;;;;;;2.16;93.08;100762.47;2088327;28;19929;-68
2022/02/20 04:09:49;;;;;;;;;;;;;;;2.17;93.06;100758.97;2096550;28;20815;-68
2022/02/20 04:10:51;;;;;;;;;;;;;;;2.15;93.67;100759.81;2096464;28;19935;-68
2022/02/20 04:12:03;;;;;;;;;;;;;;;2.13;92.95;100761.56;2088272;28;20833;-68
2022/02/20 04:13:10;;;;;;;;;;;;;;;2.10;92.92;100768.59;2088460;28;19925;-68
2022/02/20 04:14:21;;;;;;;;;;;;;;;2.07;93.09;100770.31;2095338;28;19920;-67
2022/02/20 04:15:43;;;;;;;;;;;;;;;2.06;93.17;100760.59;2082923;28;19929;-68
2022/02/20 04:16:54;;;;;;;;;;;;;;;2.04;94.16;100760.59;2081245;28;19926;-68
2022/02/20 04:17:55;;;;;;;;;;;;;;;2.00;94.41;100773.78;2079589;28;24857;-67
2022/02/20 04:18:57;;;;;;;;;;;;;;;1.97;93.47;100774.59;2087294;28;43526;-68
2022/02/20 04:20:00;;;;;;;;;;;;;;;1.95;93.76;100779.00;2097279;28;19925;-68
2022/02/20 04:21:01;;;;;;;;;;;;;;;1.91;93.86;100772.81;2095968;28;38084;-68
2022/02/20 04:22:04;;;;;;;;;;;;;;;1.88;94.33;100767.50;2096240;28;19936;-68
2022/02/20 04:23:06;;;;;;;;;;;;;;;1.85;94.11;100770.13;2096143;28;19925;-68
2022/02/20 04:24:10;;;;;;;;;;;;;;;1.83;94.38;100769.22;2088119;28;19925;-68
2022/02/20 04:25:15;;;;;;;;;;;;;;;1.82;93.71;100772.72;2088384;28;20181;-68
2022/02/20 04:26:17;;;;;;;;;;;;;;;1.80;93.98;100774.47;2088154;28;19928;-68
2022/02/20 04:27:19;;;;;;;;;;;;;;;1.76;94.17;100770.03;2088359;28;20080;-68
2022/02/20 04:28:25;;;;;;;;;;;;;;;1.74;94.85;100771.75;2088217;28;19930;-68
2022/02/20 04:29:29;;;;;;;;;;;;;;;1.74;94.88;100769.09;2088735;28;20039;-68
2022/02/20 04:30:33;;;;;;;;;;;;;;;1.71;94.60;100783.16;2096543;28;19921;-69
2022/02/20 04:31:39;;;;;;;;;;;;;;;1.69;94.18;100758.50;2087483;28;19913;-67
2022/02/20 04:32:41;;;;;;;;;;;;;;;1.68;94.72;100754.09;2087761;28;20014;-68
2022/02/20 04:33:46;;;;;;;;;;;;;;;1.66;95.23;100754.97;2087785;28;19925;-67
2022/02/20 04:34:49;;;;;;;;;;;;;;;1.64;94.27;100749.66;2079958;28;20926;-68
2022/02/20 04:35:51;;;;;;;;;;;;;;;1.61;94.46;100757.53;2079954;28;19926;-67
2022/02/20 04:36:53;;;;;;;;;;;;;;;1.61;94.47;100761.94;2088319;28;19925;-68
2022/02/20 04:37:57;;;;;;;;;;;;;;;1.60;94.25;100754.88;2088067;28;20049;-68
2022/02/20 04:38:59;;;;;;;;;;;;;;;1.56;94.48;100753.94;2095936;28;36786;-68
2022/02/20 04:40:03;;;;;;;;;;;;;;;1.56;95.04;100758.34;2088341;28;19983;-68
2022/02/20 04:41:14;;;;;;;;;;;;;;;1.51;94.52;100764.47;2080977;28;20024;-68
2022/02/20 04:42:16;;;;;;;;;;;;;;;1.58;95.94;100767.16;2079318;28;20668;-68
2022/02/20 04:43:30;;;;;;;;;;;;;;;1.52;95.41;100762.72;2089650;28;19928;-68
2022/02/20 04:44:39;;;;;;;;;;;;;;;1.51;95.36;100767.13;2087943;28;19925;-68
2022/02/20 04:45:46;;;;;;;;;;;;;;;1.52;95.13;100758.31;2080341;28;19929;-68
2022/02/20 04:46:51;;;;;;;;;;;;;;;1.52;96.23;100758.31;2088192;28;19955;-67
2022/02/20 04:47:53;;;;;;;;;;;;;;;1.48;94.86;100761.78;2096447;28;20139;-68
2022/02/20 04:48:56;;;;;;;;;;;;;;;1.50;95.62;100759.19;2088584;28;19960;-68
2022/02/20 04:50:16;;;;;;;;;;;;;;;1.48;96.10;100751.25;2089258;28;20067;-68
2022/02/20 04:51:28;;;;;;;;;;;;;;;1.48;95.56;100751.25;2090869;28;19928;-68
2022/02/20 04:52:30;;;;;;;;;;;;;;;1.43;95.08;100749.44;2089024;28;19921;-68
2022/02/20 04:53:39;;;;;;;;;;;;;;;1.43;95.66;100747.66;2090328;28;19933;-68
2022/02/20 04:54:40;;;;;;;;;;;;;;;1.42;95.93;100753.81;2089001;28;23785;-68
2022/02/20 04:55:42;;;;;;;;;;;;;;;1.47;96.22;100749.50;2089518;28;19929;-67
2022/02/20 04:56:43;;;;;;;;;;;;;;;1.45;96.39;100751.19;2096573;28;41381;-68
2022/02/20 04:57:50;;;;;;;;;;;;;;;1.42;95.81;100748.56;2089280;28;20806;-68
2022/02/20 04:58:54;;;;;;;;;;;;;;;1.45;95.55;100745.03;2081211;28;19929;-68
2022/02/20 05:00:17;;;;;;;;;;;;;;;1.41;96.19;100738.84;2083955;28;20825;-66
2022/02/20 05:01:39;;;;;;;;;;;;;;;1.44;95.35;100743.28;2089313;28;20076;-68
2022/02/20 05:02:53;;;;;;;;;;;;;;;1.43;95.94;100747.66;2089106;28;20148;-68
2022/02/20 05:03:56;;;;;;;;;;;;;;;1.44;95.20;100761.75;2089373;28;19951;-68
2022/02/20 05:05:07;;;;;;;;;;;;;;;1.46;95.58;100760.03;2096246;28;20780;-68
2022/02/20 05:06:10;;;;;;;;;;;;;;;1.45;95.48;100763.50;2097779;28;20918;-68
2022/02/20 05:07:18;;;;;;;;;;;;;;;1.45;96.23;100767.03;2097433;28;19925;-68
2022/02/20 05:08:19;;;;;;;;;;;;;;;1.45;95.04;100772.31;2089078;28;19934;-68
2022/02/20 05:09:21;;;;;;;;;;;;;;;1.46;96.42;100774.09;2088785;28;19932;-68
2022/02/20 05:10:30;;;;;;;;;;;;;;;1.48;95.86;100772.34;2088145;28;19929;-68
2022/02/20 05:11:34;;;;;;;;;;;;;;;1.47;96.27;100769.69;2090010;28;20051;-68
2022/02/20 05:12:40;;;;;;;;;;;;;;;1.50;96.37;100773.25;2089343;28;20071;-68
2022/02/20 05:13:43;;;;;;;;;;;;;;;1.50;95.26;100775.88;2080582;28;19913;-68
2022/02/20 05:14:44;;;;;;;;;;;;;;;1.47;96.30;100781.16;2081162;28;19922;-68
2022/02/20 05:15:55;;;;;;;;;;;;;;;1.50;95.63;100778.53;2090638;28;20103;-68
2022/02/20 05:16:56;;;;;;;;;;;;;;;1.52;95.23;100776.78;2089107;28;20897;-68
2022/02/20 05:18:20;;;;;;;;;;;;;;;1.52;95.73;100776.78;2083785;28;19925;-68
2022/02/20 05:19:22;;;;;;;;;;;;;;;1.52;96.25;100770.63;2088984;28;19929;-68
2022/02/20 05:20:30;;;;;;;;;;;;;;;1.53;95.00;100764.50;2089217;28;20056;-68
2022/02/20 05:21:32;;;;;;;;;;;;;;;1.51;95.68;100767.13;2089273;28;19960;-68
2022/02/20 05:22:34;;;;;;;;;;;;;;;1.52;96.44;100766.22;2089180;28;19960;-68
2022/02/20 05:23:47;;;;;;;;;;;;;;;1.51;95.95;100760.97;2082019;28;19929;-68
2022/02/20 05:24:50;;;;;;;;;;;;;;;1.55;95.51;100759.25;2080396;28;42925;-68
2022/02/20 05:25:52;;;;;;;;;;;;;;;1.53;95.83;100756.59;2088873;28;20551;-68
2022/02/20 05:26:55;;;;;;;;;;;;;;;1.57;95.82;100752.22;2097869;28;19928;-68
2022/02/20 05:28:02;;;;;;;;;;;;;;;1.57;96.36;100754.88;2088622;28;19928;-68
2022/02/20 05:29:10;;;;;;;;;;;;;;;1.59;95.86;100755.75;2090018;28;19928;-68
2022/02/20 05:30:16;;;;;;;;;;;;;;;1.60;96.07;100746.97;2088986;28;20773;-68
2022/02/20 05:31:23;;;;;;;;;;;;;;;1.61;95.96;100748.75;2082442;28;20842;-68
2022/02/20 05:32:32;;;;;;;;;;;;;;;1.65;95.81;100739.97;2081258;28;19929;-68
2022/02/20 05:33:50;;;;;;;;;;;;;;;1.65;96.14;100743.53;2091337;28;19937;-68
2022/02/20 05:34:52;;;;;;;;;;;;;;;1.64;96.43;100744.38;2088434;28;33266;-68
2022/02/20 05:35:57;;;;;;;;;;;;;;;1.63;95.29;100741.72;2089193;28;20833;-68
2022/02/20 05:37:09;;;;;;;;;;;;;;;1.68;95.74;100748.81;2097532;28;19925;-68
2022/02/20 05:38:16;;;;;;;;;;;;;;;1.69;96.58;100740.03;2088482;28;20002;-68
2022/02/20 05:39:20;;;;;;;;;;;;;;;1.71;96.07;100742.69;2088935;28;43046;-68
2022/02/20 05:40:23;;;;;;;;;;;;;;;1.70;95.82;100740.91;2089672;28;19968;-68